sensor_id;sensor_type;location;lat;lon;timestamp;P1;durP1;ratioP1;P2;durP2;ratioP2
45338;SDS011;31071;51.478;5.710;2023-03-01T00:02:04;13.52;;;9.02;;
45338;SDS011;31071;51.478;5.710;2023-03-01T00:04:30;12.02;;;9.50;;
45338;SDS011;31071;51.478;5.710;2023-03-01T00:06:56;12.88;;;9.73;;
45338;SDS011;31071;51.478;5.710;2023-03-01T00:09:21;16.95;;;10.25;;
45338;SDS011;31071;51.478;5.710;2023-03-01T00:11:47;22.55;;;12.68;;
45338;SDS011;31071;51.478;5.710;2023-03-01T00:14:13;12.38;;;9.27;;
45338;SDS011;31071;51.478;5.710;2023-03-01T00:16:40;14.10;;;9.60;;
45338;SDS011;31071;51.478;5.710;2023-03-01T00:19:08;12.48;;;8.85;;
45338;SDS011;31071;51.478;5.710;2023-03-01T00:21:39;15.95;;;10.05;;
45338;SDS011;31071;51.478;5.710;2023-03-01T00:24:06;13.65;;;9.77;;
45338;SDS011;31071;51.478;5.710;2023-03-01T00:26:32;14.35;;;9.38;;
45338;SDS011;31071;51.478;5.710;2023-03-01T00:28:58;14.70;;;9.18;;
45338;SDS011;31071;51.478;5.710;2023-03-01T00:31:26;15.15;;;9.35;;
45338;SDS011;31071;51.478;5.710;2023-03-01T00:33:55;14.15;;;9.40;;
45338;SDS011;31071;51.478;5.710;2023-03-01T00:36:22;15.10;;;10.43;;
45338;SDS011;31071;51.478;5.710;2023-03-01T00:38:49;13.65;;;9.35;;
45338;SDS011;31071;51.478;5.710;2023-03-01T00:41:16;15.52;;;9.77;;
45338;SDS011;31071;51.478;5.710;2023-03-01T00:43:42;12.82;;;9.25;;
45338;SDS011;31071;51.478;5.710;2023-03-01T00:46:09;14.13;;;9.32;;
45338;SDS011;31071;51.478;5.710;2023-03-01T00:48:37;16.05;;;9.90;;
45338;SDS011;31071;51.478;5.710;2023-03-01T00:51:06;23.05;;;11.73;;
45338;SDS011;31071;51.478;5.710;2023-03-01T00:53:33;15.88;;;10.32;;
45338;SDS011;31071;51.478;5.710;2023-03-01T00:55:59;11.75;;;8.98;;
45338;SDS011;31071;51.478;5.710;2023-03-01T00:58:25;14.18;;;9.35;;
45338;SDS011;31071;51.478;5.710;2023-03-01T01:00:51;13.85;;;9.60;;
45338;SDS011;31071;51.478;5.710;2023-03-01T01:03:19;12.85;;;8.60;;
45338;SDS011;31071;51.478;5.710;2023-03-01T01:05:46;13.15;;;9.13;;
45338;SDS011;31071;51.478;5.710;2023-03-01T01:08:11;12.05;;;8.25;;
45338;SDS011;31071;51.478;5.710;2023-03-01T01:10:37;14.57;;;9.52;;
45338;SDS011;31071;51.478;5.710;2023-03-01T01:13:03;13.02;;;9.02;;
45338;SDS011;31071;51.478;5.710;2023-03-01T01:15:29;15.13;;;9.02;;
45338;SDS011;31071;51.478;5.710;2023-03-01T01:17:58;12.10;;;8.77;;
45338;SDS011;31071;51.478;5.710;2023-03-01T01:20:23;12.30;;;9.20;;
45338;SDS011;31071;51.478;5.710;2023-03-01T01:22:49;13.75;;;9.48;;
45338;SDS011;31071;51.478;5.710;2023-03-01T01:25:16;12.15;;;8.35;;
45338;SDS011;31071;51.478;5.710;2023-03-01T01:27:41;13.98;;;8.60;;
45338;SDS011;31071;51.478;5.710;2023-03-01T01:30:07;12.63;;;8.85;;
45338;SDS011;31071;51.478;5.710;2023-03-01T01:32:33;12.50;;;8.40;;
45338;SDS011;31071;51.478;5.710;2023-03-01T01:34:59;13.27;;;8.73;;
45338;SDS011;31071;51.478;5.710;2023-03-01T01:37:24;12.43;;;8.73;;
45338;SDS011;31071;51.478;5.710;2023-03-01T01:39:56;15.82;;;8.45;;
45338;SDS011;31071;51.478;5.710;2023-03-01T01:42:25;11.50;;;8.48;;
45338;SDS011;31071;51.478;5.710;2023-03-01T01:47:54;12.73;;;8.65;;
45338;SDS011;31071;51.478;5.710;2023-03-01T01:50:22;12.95;;;8.75;;
45338;SDS011;31071;51.478;5.710;2023-03-01T01:52:48;12.02;;;8.57;;
45338;SDS011;31071;51.478;5.710;2023-03-01T01:55:21;12.75;;;9.13;;
45338;SDS011;31071;51.478;5.710;2023-03-01T01:57:53;11.95;;;8.95;;
45338;SDS011;31071;51.478;5.710;2023-03-01T02:00:26;14.27;;;9.05;;
45338;SDS011;31071;51.478;5.710;2023-03-01T02:02:59;13.80;;;9.82;;
45338;SDS011;31071;51.478;5.710;2023-03-01T02:05:35;12.00;;;8.55;;
45338;SDS011;31071;51.478;5.710;2023-03-01T02:08:15;12.40;;;8.65;;
45338;SDS011;31071;51.478;5.710;2023-03-01T02:10:43;12.85;;;8.50;;
45338;SDS011;31071;51.478;5.710;2023-03-01T02:13:10;13.35;;;8.70;;
45338;SDS011;31071;51.478;5.710;2023-03-01T02:15:37;12.90;;;9.13;;
45338;SDS011;31071;51.478;5.710;2023-03-01T02:18:04;12.75;;;8.52;;
45338;SDS011;31071;51.478;5.710;2023-03-01T02:23:05;13.55;;;8.32;;
45338;SDS011;31071;51.478;5.710;2023-03-01T02:25:36;12.98;;;8.80;;
45338;SDS011;31071;51.478;5.710;2023-03-01T02:30:55;10.48;;;7.93;;
45338;SDS011;31071;51.478;5.710;2023-03-01T02:33:40;12.82;;;9.18;;
45338;SDS011;31071;51.478;5.710;2023-03-01T02:36:13;17.02;;;8.75;;
45338;SDS011;31071;51.478;5.710;2023-03-01T02:38:44;12.85;;;9.35;;
45338;SDS011;31071;51.478;5.710;2023-03-01T02:41:12;12.43;;;9.00;;
45338;SDS011;31071;51.478;5.710;2023-03-01T02:43:41;14.50;;;8.73;;
45338;SDS011;31071;51.478;5.710;2023-03-01T02:46:13;11.85;;;8.73;;
45338;SDS011;31071;51.478;5.710;2023-03-01T02:48:47;11.85;;;8.73;;
45338;SDS011;31071;51.478;5.710;2023-03-01T02:56:40;12.52;;;8.60;;
45338;SDS011;31071;51.478;5.710;2023-03-01T02:59:07;13.23;;;8.80;;
45338;SDS011;31071;51.478;5.710;2023-03-01T03:01:34;17.27;;;9.77;;
45338;SDS011;31071;51.478;5.710;2023-03-01T03:04:07;15.55;;;9.57;;
45338;SDS011;31071;51.478;5.710;2023-03-01T03:06:35;13.70;;;8.73;;
45338;SDS011;31071;51.478;5.710;2023-03-01T03:09:00;13.48;;;8.60;;
45338;SDS011;31071;51.478;5.710;2023-03-01T03:11:26;12.65;;;8.75;;
45338;SDS011;31071;51.478;5.710;2023-03-01T03:13:52;14.15;;;9.05;;
45338;SDS011;31071;51.478;5.710;2023-03-01T03:16:18;10.82;;;8.38;;
45338;SDS011;31071;51.478;5.710;2023-03-01T03:18:44;15.98;;;8.73;;
45338;SDS011;31071;51.478;5.710;2023-03-01T03:21:11;13.30;;;9.05;;
45338;SDS011;31071;51.478;5.710;2023-03-01T03:23:37;14.30;;;9.88;;
45338;SDS011;31071;51.478;5.710;2023-03-01T03:26:03;14.23;;;9.50;;
45338;SDS011;31071;51.478;5.710;2023-03-01T03:28:30;11.45;;;9.32;;
45338;SDS011;31071;51.478;5.710;2023-03-01T03:30:56;14.00;;;9.40;;
45338;SDS011;31071;51.478;5.710;2023-03-01T03:33:23;14.13;;;9.77;;
45338;SDS011;31071;51.478;5.710;2023-03-01T03:35:49;12.57;;;9.35;;
45338;SDS011;31071;51.478;5.710;2023-03-01T03:38:16;14.45;;;9.07;;
45338;SDS011;31071;51.478;5.710;2023-03-01T03:40:45;17.42;;;9.32;;
45338;SDS011;31071;51.478;5.710;2023-03-01T03:43:13;12.90;;;9.52;;
45338;SDS011;31071;51.478;5.710;2023-03-01T03:45:40;13.65;;;9.52;;
45338;SDS011;31071;51.478;5.710;2023-03-01T03:48:07;12.60;;;8.48;;
45338;SDS011;31071;51.478;5.710;2023-03-01T03:50:34;13.35;;;8.45;;
45338;SDS011;31071;51.478;5.710;2023-03-01T03:53:01;12.60;;;9.07;;
45338;SDS011;31071;51.478;5.710;2023-03-01T03:55:28;13.45;;;8.65;;
45338;SDS011;31071;51.478;5.710;2023-03-01T03:57:56;13.60;;;9.43;;
45338;SDS011;31071;51.478;5.710;2023-03-01T04:00:23;20.20;;;9.07;;
45338;SDS011;31071;51.478;5.710;2023-03-01T04:02:49;15.50;;;9.52;;
45338;SDS011;31071;51.478;5.710;2023-03-01T04:05:16;13.10;;;9.57;;
45338;SDS011;31071;51.478;5.710;2023-03-01T04:07:43;14.50;;;9.07;;
45338;SDS011;31071;51.478;5.710;2023-03-01T04:10:11;14.13;;;8.95;;
45338;SDS011;31071;51.478;5.710;2023-03-01T04:12:39;16.33;;;9.57;;
45338;SDS011;31071;51.478;5.710;2023-03-01T04:15:05;14.38;;;9.50;;
45338;SDS011;31071;51.478;5.710;2023-03-01T04:17:42;14.27;;;9.32;;
45338;SDS011;31071;51.478;5.710;2023-03-01T04:20:10;12.10;;;9.00;;
45338;SDS011;31071;51.478;5.710;2023-03-01T04:22:37;14.07;;;9.23;;
45338;SDS011;31071;51.478;5.710;2023-03-01T04:25:03;14.55;;;9.15;;
45338;SDS011;31071;51.478;5.710;2023-03-01T04:27:31;14.73;;;10.07;;
45338;SDS011;31071;51.478;5.710;2023-03-01T04:29:58;15.05;;;9.68;;
45338;SDS011;31071;51.478;5.710;2023-03-01T04:32:23;21.55;;;9.88;;
45338;SDS011;31071;51.478;5.710;2023-03-01T04:34:49;15.88;;;9.20;;
45338;SDS011;31071;51.478;5.710;2023-03-01T04:37:14;15.20;;;9.20;;
45338;SDS011;31071;51.478;5.710;2023-03-01T04:39:40;12.45;;;8.80;;
45338;SDS011;31071;51.478;5.710;2023-03-01T04:42:10;14.90;;;9.45;;
45338;SDS011;31071;51.478;5.710;2023-03-01T04:44:36;12.85;;;9.15;;
45338;SDS011;31071;51.478;5.710;2023-03-01T04:47:02;12.73;;;9.25;;
45338;SDS011;31071;51.478;5.710;2023-03-01T04:49:28;20.85;;;9.65;;
45338;SDS011;31071;51.478;5.710;2023-03-01T04:51:53;16.27;;;9.60;;
45338;SDS011;31071;51.478;5.710;2023-03-01T04:54:19;13.82;;;9.00;;
45338;SDS011;31071;51.478;5.710;2023-03-01T04:56:44;13.63;;;9.05;;
45338;SDS011;31071;51.478;5.710;2023-03-01T04:59:10;16.48;;;9.27;;
45338;SDS011;31071;51.478;5.710;2023-03-01T05:01:38;14.30;;;9.25;;
45338;SDS011;31071;51.478;5.710;2023-03-01T05:04:04;16.15;;;9.82;;
45338;SDS011;31071;51.478;5.710;2023-03-01T05:06:30;15.02;;;9.70;;
45338;SDS011;31071;51.478;5.710;2023-03-01T05:08:56;16.35;;;10.25;;
45338;SDS011;31071;51.478;5.710;2023-03-01T05:11:21;16.50;;;10.55;;
45338;SDS011;31071;51.478;5.710;2023-03-01T05:13:47;17.23;;;10.27;;
45338;SDS011;31071;51.478;5.710;2023-03-01T05:16:14;15.23;;;10.07;;
45338;SDS011;31071;51.478;5.710;2023-03-01T05:18:41;13.77;;;10.15;;
45338;SDS011;31071;51.478;5.710;2023-03-01T05:21:12;15.52;;;10.43;;
45338;SDS011;31071;51.478;5.710;2023-03-01T05:26:06;15.10;;;10.05;;
45338;SDS011;31071;51.478;5.710;2023-03-01T05:28:33;15.90;;;10.30;;
45338;SDS011;31071;51.478;5.710;2023-03-01T05:30:59;17.27;;;10.63;;
45338;SDS011;31071;51.478;5.710;2023-03-01T05:33:25;18.08;;;10.80;;
45338;SDS011;31071;51.478;5.710;2023-03-01T05:35:51;17.23;;;10.52;;
45338;SDS011;31071;51.478;5.710;2023-03-01T05:38:18;17.35;;;10.50;;
45338;SDS011;31071;51.478;5.710;2023-03-01T05:40:45;16.20;;;10.40;;
45338;SDS011;31071;51.478;5.710;2023-03-01T05:43:12;13.13;;;9.75;;
45338;SDS011;31071;51.478;5.710;2023-03-01T05:45:39;20.85;;;10.82;;
45338;SDS011;31071;51.478;5.710;2023-03-01T05:48:06;14.10;;;9.55;;
45338;SDS011;31071;51.478;5.710;2023-03-01T05:50:33;16.23;;;10.45;;
45338;SDS011;31071;51.478;5.710;2023-03-01T05:55:28;16.30;;;10.50;;
45338;SDS011;31071;51.478;5.710;2023-03-01T05:57:55;15.45;;;9.68;;
45338;SDS011;31071;51.478;5.710;2023-03-01T06:00:23;21.00;;;10.35;;
45338;SDS011;31071;51.478;5.710;2023-03-01T06:02:49;14.30;;;10.25;;
45338;SDS011;31071;51.478;5.710;2023-03-01T06:05:16;15.85;;;10.23;;
45338;SDS011;31071;51.478;5.710;2023-03-01T06:07:42;15.35;;;10.75;;
45338;SDS011;31071;51.478;5.710;2023-03-01T06:10:09;15.48;;;10.45;;
45338;SDS011;31071;51.478;5.710;2023-03-01T06:12:36;19.20;;;10.45;;
45338;SDS011;31071;51.478;5.710;2023-03-01T06:15:04;16.42;;;10.25;;
45338;SDS011;31071;51.478;5.710;2023-03-01T06:17:31;15.57;;;9.27;;
45338;SDS011;31071;51.478;5.710;2023-03-01T06:20:02;16.83;;;10.55;;
45338;SDS011;31071;51.478;5.710;2023-03-01T06:22:31;18.85;;;11.23;;
45338;SDS011;31071;51.478;5.710;2023-03-01T06:24:57;17.27;;;10.98;;
45338;SDS011;31071;51.478;5.710;2023-03-01T06:27:22;15.18;;;10.90;;
45338;SDS011;31071;51.478;5.710;2023-03-01T06:29:48;18.15;;;11.15;;
45338;SDS011;31071;51.478;5.710;2023-03-01T06:32:13;14.85;;;10.32;;
45338;SDS011;31071;51.478;5.710;2023-03-01T06:34:39;23.30;;;11.35;;
45338;SDS011;31071;51.478;5.710;2023-03-01T06:37:05;21.05;;;11.88;;
45338;SDS011;31071;51.478;5.710;2023-03-01T06:39:32;22.60;;;12.90;;
45338;SDS011;31071;51.478;5.710;2023-03-01T06:41:58;24.17;;;13.90;;
45338;SDS011;31071;51.478;5.710;2023-03-01T06:44:24;20.65;;;13.45;;
45338;SDS011;31071;51.478;5.710;2023-03-01T06:46:50;21.35;;;12.95;;
45338;SDS011;31071;51.478;5.710;2023-03-01T06:49:16;21.15;;;12.43;;
45338;SDS011;31071;51.478;5.710;2023-03-01T06:51:42;22.08;;;12.90;;
45338;SDS011;31071;51.478;5.710;2023-03-01T06:54:08;22.00;;;13.82;;
45338;SDS011;31071;51.478;5.710;2023-03-01T06:56:34;25.05;;;13.32;;
45338;SDS011;31071;51.478;5.710;2023-03-01T06:59:00;21.75;;;12.07;;
45338;SDS011;31071;51.478;5.710;2023-03-01T07:01:27;19.48;;;11.95;;
45338;SDS011;31071;51.478;5.710;2023-03-01T07:03:53;21.65;;;12.40;;
45338;SDS011;31071;51.478;5.710;2023-03-01T07:06:18;18.88;;;11.70;;
45338;SDS011;31071;51.478;5.710;2023-03-01T07:08:44;19.50;;;11.55;;
45338;SDS011;31071;51.478;5.710;2023-03-01T07:11:10;19.92;;;12.02;;
45338;SDS011;31071;51.478;5.710;2023-03-01T07:13:35;20.90;;;12.13;;
45338;SDS011;31071;51.478;5.710;2023-03-01T07:16:01;20.58;;;11.70;;
45338;SDS011;31071;51.478;5.710;2023-03-01T07:18:26;19.35;;;11.73;;
45338;SDS011;31071;51.478;5.710;2023-03-01T07:20:52;18.58;;;11.55;;
45338;SDS011;31071;51.478;5.710;2023-03-01T07:23:18;19.20;;;11.90;;
45338;SDS011;31071;51.478;5.710;2023-03-01T07:25:43;21.73;;;12.50;;
45338;SDS011;31071;51.478;5.710;2023-03-01T07:28:09;25.40;;;12.48;;
45338;SDS011;31071;51.478;5.710;2023-03-01T07:30:34;16.98;;;11.18;;
45338;SDS011;31071;51.478;5.710;2023-03-01T07:33:00;19.00;;;11.45;;
45338;SDS011;31071;51.478;5.710;2023-03-01T07:35:26;21.17;;;12.63;;
45338;SDS011;31071;51.478;5.710;2023-03-01T07:37:52;17.45;;;11.55;;
45338;SDS011;31071;51.478;5.710;2023-03-01T07:40:18;18.13;;;11.38;;
45338;SDS011;31071;51.478;5.710;2023-03-01T07:42:44;16.95;;;11.30;;
45338;SDS011;31071;51.478;5.710;2023-03-01T07:45:10;16.20;;;10.95;;
45338;SDS011;31071;51.478;5.710;2023-03-01T07:47:36;17.75;;;11.80;;
45338;SDS011;31071;51.478;5.710;2023-03-01T07:50:02;16.73;;;10.60;;
45338;SDS011;31071;51.478;5.710;2023-03-01T07:52:28;16.33;;;10.70;;
45338;SDS011;31071;51.478;5.710;2023-03-01T07:54:55;17.48;;;11.45;;
45338;SDS011;31071;51.478;5.710;2023-03-01T07:57:21;16.60;;;10.95;;
45338;SDS011;31071;51.478;5.710;2023-03-01T07:59:46;15.05;;;10.70;;
45338;SDS011;31071;51.478;5.710;2023-03-01T08:02:12;14.82;;;11.20;;
45338;SDS011;31071;51.478;5.710;2023-03-01T08:04:37;15.60;;;10.63;;
45338;SDS011;31071;51.478;5.710;2023-03-01T08:07:04;16.17;;;11.43;;
45338;SDS011;31071;51.478;5.710;2023-03-01T08:09:30;18.52;;;11.70;;
45338;SDS011;31071;51.478;5.710;2023-03-01T08:11:56;15.57;;;11.10;;
45338;SDS011;31071;51.478;5.710;2023-03-01T08:14:26;18.85;;;11.40;;
45338;SDS011;31071;51.478;5.710;2023-03-01T08:16:51;15.63;;;10.80;;
45338;SDS011;31071;51.478;5.710;2023-03-01T08:19:17;14.57;;;10.45;;
45338;SDS011;31071;51.478;5.710;2023-03-01T08:21:42;16.48;;;11.02;;
45338;SDS011;31071;51.478;5.710;2023-03-01T08:24:08;16.80;;;11.00;;
45338;SDS011;31071;51.478;5.710;2023-03-01T08:26:37;15.23;;;11.00;;
45338;SDS011;31071;51.478;5.710;2023-03-01T08:29:02;15.02;;;10.55;;
45338;SDS011;31071;51.478;5.710;2023-03-01T08:31:30;16.08;;;11.13;;
45338;SDS011;31071;51.478;5.710;2023-03-01T08:34:04;16.85;;;10.80;;
45338;SDS011;31071;51.478;5.710;2023-03-01T08:36:34;18.13;;;10.95;;
45338;SDS011;31071;51.478;5.710;2023-03-01T08:39:05;14.32;;;10.32;;
45338;SDS011;31071;51.478;5.710;2023-03-01T08:41:31;16.77;;;10.07;;
45338;SDS011;31071;51.478;5.710;2023-03-01T08:43:57;12.50;;;9.65;;
45338;SDS011;31071;51.478;5.710;2023-03-01T08:46:26;13.77;;;10.43;;
45338;SDS011;31071;51.478;5.710;2023-03-01T08:48:53;15.13;;;9.73;;
45338;SDS011;31071;51.478;5.710;2023-03-01T08:51:18;15.27;;;10.35;;
45338;SDS011;31071;51.478;5.710;2023-03-01T08:53:45;12.30;;;9.57;;
45338;SDS011;31071;51.478;5.710;2023-03-01T08:56:11;13.35;;;9.55;;
45338;SDS011;31071;51.478;5.710;2023-03-01T08:58:37;13.40;;;9.98;;
45338;SDS011;31071;51.478;5.710;2023-03-01T09:01:06;12.40;;;10.00;;
45338;SDS011;31071;51.478;5.710;2023-03-01T09:03:32;13.60;;;9.70;;
45338;SDS011;31071;51.478;5.710;2023-03-01T09:06:02;11.68;;;9.02;;
45338;SDS011;31071;51.478;5.710;2023-03-01T09:08:28;11.70;;;9.07;;
45338;SDS011;31071;51.478;5.710;2023-03-01T09:10:54;11.93;;;9.25;;
45338;SDS011;31071;51.478;5.710;2023-03-01T09:13:20;10.98;;;8.93;;
45338;SDS011;31071;51.478;5.710;2023-03-01T09:15:45;13.90;;;9.30;;
45338;SDS011;31071;51.478;5.710;2023-03-01T09:18:11;10.07;;;8.82;;
45338;SDS011;31071;51.478;5.710;2023-03-01T09:20:37;11.13;;;9.15;;
45338;SDS011;31071;51.478;5.710;2023-03-01T09:23:02;13.80;;;9.20;;
45338;SDS011;31071;51.478;5.710;2023-03-01T09:25:28;11.27;;;8.23;;
45338;SDS011;31071;51.478;5.710;2023-03-01T09:27:53;11.10;;;8.57;;
45338;SDS011;31071;51.478;5.710;2023-03-01T09:30:20;10.45;;;7.97;;
45338;SDS011;31071;51.478;5.710;2023-03-01T09:32:46;9.52;;;8.52;;
45338;SDS011;31071;51.478;5.710;2023-03-01T09:35:12;10.80;;;8.07;;
45338;SDS011;31071;51.478;5.710;2023-03-01T09:37:38;12.13;;;9.07;;
45338;SDS011;31071;51.478;5.710;2023-03-01T09:40:08;10.80;;;8.77;;
45338;SDS011;31071;51.478;5.710;2023-03-01T09:42:49;10.70;;;8.98;;
45338;SDS011;31071;51.478;5.710;2023-03-01T09:47:50;10.75;;;8.65;;
45338;SDS011;31071;51.478;5.710;2023-03-01T09:50:19;12.60;;;9.23;;
45338;SDS011;31071;51.478;5.710;2023-03-01T10:01:28;11.63;;;9.73;;
45338;SDS011;31071;51.478;5.710;2023-03-01T10:06:35;12.65;;;9.73;;
45338;SDS011;31071;51.478;5.710;2023-03-01T10:09:05;12.98;;;9.80;;
45338;SDS011;31071;51.478;5.710;2023-03-01T10:11:44;11.07;;;9.98;;
45338;SDS011;31071;51.478;5.710;2023-03-01T10:16:58;11.73;;;10.60;;
45338;SDS011;31071;51.478;5.710;2023-03-01T10:21:57;12.82;;;10.38;;
45338;SDS011;31071;51.478;5.710;2023-03-01T10:24:31;12.45;;;10.40;;
45338;SDS011;31071;51.478;5.710;2023-03-01T10:27:01;12.45;;;10.10;;
45338;SDS011;31071;51.478;5.710;2023-03-01T10:29:48;14.68;;;10.60;;
45338;SDS011;31071;51.478;5.710;2023-03-01T10:32:36;12.00;;;9.85;;
45338;SDS011;31071;51.478;5.710;2023-03-01T10:35:14;12.65;;;10.02;;
45338;SDS011;31071;51.478;5.710;2023-03-01T10:40:22;11.30;;;9.80;;
45338;SDS011;31071;51.478;5.710;2023-03-01T10:42:48;10.98;;;9.55;;
45338;SDS011;31071;51.478;5.710;2023-03-01T10:48:01;10.45;;;8.75;;
45338;SDS011;31071;51.478;5.710;2023-03-01T10:50:35;13.00;;;9.63;;
45338;SDS011;31071;51.478;5.710;2023-03-01T10:53:03;10.85;;;9.75;;
45338;SDS011;31071;51.478;5.710;2023-03-01T10:55:36;11.02;;;9.48;;
45338;SDS011;31071;51.478;5.710;2023-03-01T11:01:00;11.00;;;9.23;;
45338;SDS011;31071;51.478;5.710;2023-03-01T11:03:32;10.57;;;9.48;;
45338;SDS011;31071;51.478;5.710;2023-03-01T11:12:48;9.25;;;8.07;;
45338;SDS011;31071;51.478;5.710;2023-03-01T11:15:43;10.90;;;8.63;;
45338;SDS011;31071;51.478;5.710;2023-03-01T11:23:33;11.90;;;8.50;;
45338;SDS011;31071;51.478;5.710;2023-03-01T11:26:14;10.05;;;8.40;;
45338;SDS011;31071;51.478;5.710;2023-03-01T11:56:21;7.95;;;7.15;;
45338;SDS011;31071;51.478;5.710;2023-03-01T11:59:02;8.80;;;7.90;;
45338;SDS011;31071;51.478;5.710;2023-03-01T12:04:29;8.88;;;7.60;;
45338;SDS011;31071;51.478;5.710;2023-03-01T12:10:32;9.45;;;7.13;;
45338;SDS011;31071;51.478;5.710;2023-03-01T12:13:06;9.25;;;7.85;;
45338;SDS011;31071;51.478;5.710;2023-03-01T12:22:15;8.38;;;7.53;;
45338;SDS011;31071;51.478;5.710;2023-03-01T12:25:14;8.32;;;7.50;;
45338;SDS011;31071;51.478;5.710;2023-03-01T12:34:44;14.95;;;9.40;;
45338;SDS011;31071;51.478;5.710;2023-03-01T13:28:57;7.90;;;6.80;;
45338;SDS011;31071;51.478;5.710;2023-03-01T13:31:10;10.50;;;7.28;;
45338;SDS011;31071;51.478;5.710;2023-03-01T13:33:45;8.70;;;7.80;;
45338;SDS011;31071;51.478;5.710;2023-03-01T13:44:11;9.80;;;7.55;;
45338;SDS011;31071;51.478;5.710;2023-03-01T13:46:43;8.38;;;7.40;;
45338;SDS011;31071;51.478;5.710;2023-03-01T13:49:11;8.48;;;7.57;;
45338;SDS011;31071;51.478;5.710;2023-03-01T13:51:41;9.55;;;8.00;;
45338;SDS011;31071;51.478;5.710;2023-03-01T13:54:11;7.78;;;6.97;;
45338;SDS011;31071;51.478;5.710;2023-03-01T13:56:39;8.13;;;7.32;;
45338;SDS011;31071;51.478;5.710;2023-03-01T13:59:15;10.13;;;7.60;;
45338;SDS011;31071;51.478;5.710;2023-03-01T14:01:42;8.00;;;7.20;;
45338;SDS011;31071;51.478;5.710;2023-03-01T14:04:41;9.15;;;7.22;;
45338;SDS011;31071;51.478;5.710;2023-03-01T14:07:16;10.48;;;7.35;;
45338;SDS011;31071;51.478;5.710;2023-03-01T14:09:44;9.55;;;8.05;;
45338;SDS011;31071;51.478;5.710;2023-03-01T14:14:42;13.07;;;9.02;;
45338;SDS011;31071;51.478;5.710;2023-03-01T14:17:22;10.23;;;8.50;;
45338;SDS011;31071;51.478;5.710;2023-03-01T14:23:10;12.07;;;7.57;;
45338;SDS011;31071;51.478;5.710;2023-03-01T14:25:38;10.45;;;7.53;;
45338;SDS011;31071;51.478;5.710;2023-03-01T14:28:18;10.20;;;7.97;;
45338;SDS011;31071;51.478;5.710;2023-03-01T14:30:49;9.10;;;7.32;;
45338;SDS011;31071;51.478;5.710;2023-03-01T14:36:08;9.98;;;7.50;;
45338;SDS011;31071;51.478;5.710;2023-03-01T14:38:36;11.32;;;7.70;;
45338;SDS011;31071;51.478;5.710;2023-03-01T14:41:11;11.05;;;7.90;;
45338;SDS011;31071;51.478;5.710;2023-03-01T14:43:46;10.48;;;7.53;;
45338;SDS011;31071;51.478;5.710;2023-03-01T14:49:03;9.93;;;8.00;;
45338;SDS011;31071;51.478;5.710;2023-03-01T14:51:38;11.15;;;8.60;;
45338;SDS011;31071;51.478;5.710;2023-03-01T14:57:12;10.50;;;8.25;;
45338;SDS011;31071;51.478;5.710;2023-03-01T14:59:40;11.38;;;8.38;;
45338;SDS011;31071;51.478;5.710;2023-03-01T15:02:12;10.82;;;8.13;;
45338;SDS011;31071;51.478;5.710;2023-03-01T15:04:48;13.18;;;8.73;;
45338;SDS011;31071;51.478;5.710;2023-03-01T15:07:16;10.33;;;8.53;;
45338;SDS011;31071;51.478;5.710;2023-03-01T15:09:43;11.68;;;8.65;;
45338;SDS011;31071;51.478;5.710;2023-03-01T15:14:53;11.52;;;9.05;;
45338;SDS011;31071;51.478;5.710;2023-03-01T15:17:33;12.85;;;8.68;;
45338;SDS011;31071;51.478;5.710;2023-03-01T15:20:01;12.27;;;9.10;;
45338;SDS011;31071;51.478;5.710;2023-03-01T15:22:30;10.57;;;8.30;;
45338;SDS011;31071;51.478;5.710;2023-03-01T15:24:56;12.93;;;8.73;;
45338;SDS011;31071;51.478;5.710;2023-03-01T15:27:23;13.38;;;9.27;;
45338;SDS011;31071;51.478;5.710;2023-03-01T15:29:52;14.10;;;9.48;;
45338;SDS011;31071;51.478;5.710;2023-03-01T15:32:32;12.57;;;9.15;;
45338;SDS011;31071;51.478;5.710;2023-03-01T15:35:47;12.00;;;8.65;;
45338;SDS011;31071;51.478;5.710;2023-03-01T15:38:25;14.30;;;8.90;;
45338;SDS011;31071;51.478;5.710;2023-03-01T15:56:49;14.30;;;8.52;;
45338;SDS011;31071;51.478;5.710;2023-03-01T16:14:50;11.13;;;8.73;;
45338;SDS011;31071;51.478;5.710;2023-03-01T16:17:20;14.20;;;8.90;;
45338;SDS011;31071;51.478;5.710;2023-03-01T16:19:50;12.83;;;9.27;;
45338;SDS011;31071;51.478;5.710;2023-03-01T16:22:17;11.85;;;8.65;;
45338;SDS011;31071;51.478;5.710;2023-03-01T16:24:52;14.15;;;8.80;;
45338;SDS011;31071;51.478;5.710;2023-03-01T16:27:18;11.48;;;8.63;;
45338;SDS011;31071;51.478;5.710;2023-03-01T16:29:45;12.32;;;8.82;;
45338;SDS011;31071;51.478;5.710;2023-03-01T16:32:10;11.35;;;8.65;;
45338;SDS011;31071;51.478;5.710;2023-03-01T16:34:36;12.63;;;9.05;;
45338;SDS011;31071;51.478;5.710;2023-03-01T16:37:01;13.93;;;8.70;;
45338;SDS011;31071;51.478;5.710;2023-03-01T16:39:27;13.15;;;8.85;;
45338;SDS011;31071;51.478;5.710;2023-03-01T16:41:53;11.50;;;8.40;;
45338;SDS011;31071;51.478;5.710;2023-03-01T16:44:18;14.75;;;8.57;;
45338;SDS011;31071;51.478;5.710;2023-03-01T16:46:46;10.90;;;8.60;;
45338;SDS011;31071;51.478;5.710;2023-03-01T16:49:12;12.90;;;8.98;;
45338;SDS011;31071;51.478;5.710;2023-03-01T16:51:37;15.43;;;9.60;;
45338;SDS011;31071;51.478;5.710;2023-03-01T16:54:03;12.20;;;8.80;;
45338;SDS011;31071;51.478;5.710;2023-03-01T16:56:29;10.23;;;7.78;;
45338;SDS011;31071;51.478;5.710;2023-03-01T17:01:31;16.35;;;8.98;;
45338;SDS011;31071;51.478;5.710;2023-03-01T17:04:05;11.68;;;8.43;;
45338;SDS011;31071;51.478;5.710;2023-03-01T17:06:32;14.25;;;9.35;;
45338;SDS011;31071;51.478;5.710;2023-03-01T17:08:58;12.98;;;8.77;;
45338;SDS011;31071;51.478;5.710;2023-03-01T17:11:24;13.85;;;9.30;;
45338;SDS011;31071;51.478;5.710;2023-03-01T17:13:51;16.25;;;9.15;;
45338;SDS011;31071;51.478;5.710;2023-03-01T17:16:17;15.05;;;9.32;;
45338;SDS011;31071;51.478;5.710;2023-03-01T17:18:44;14.52;;;8.32;;
45338;SDS011;31071;51.478;5.710;2023-03-01T17:21:11;12.07;;;8.95;;
45338;SDS011;31071;51.478;5.710;2023-03-01T17:23:38;14.70;;;9.65;;
45338;SDS011;31071;51.478;5.710;2023-03-01T17:26:05;12.63;;;9.15;;
45338;SDS011;31071;51.478;5.710;2023-03-01T17:28:31;13.02;;;9.52;;
45338;SDS011;31071;51.478;5.710;2023-03-01T17:30:59;13.02;;;9.00;;
45338;SDS011;31071;51.478;5.710;2023-03-01T17:33:27;11.90;;;9.32;;
45338;SDS011;31071;51.478;5.710;2023-03-01T17:35:56;15.30;;;9.25;;
45338;SDS011;31071;51.478;5.710;2023-03-01T17:38:23;15.18;;;9.80;;
45338;SDS011;31071;51.478;5.710;2023-03-01T17:40:49;14.75;;;9.75;;
45338;SDS011;31071;51.478;5.710;2023-03-01T17:43:15;16.38;;;9.32;;
45338;SDS011;31071;51.478;5.710;2023-03-01T17:45:41;14.98;;;9.77;;
45338;SDS011;31071;51.478;5.710;2023-03-01T17:48:12;13.63;;;9.70;;
45338;SDS011;31071;51.478;5.710;2023-03-01T17:50:42;17.55;;;9.48;;
45338;SDS011;31071;51.478;5.710;2023-03-01T17:53:09;15.15;;;9.57;;
45338;SDS011;31071;51.478;5.710;2023-03-01T17:55:36;15.93;;;10.23;;
45338;SDS011;31071;51.478;5.710;2023-03-01T17:58:03;13.18;;;9.70;;
45338;SDS011;31071;51.478;5.710;2023-03-01T18:00:30;18.35;;;10.63;;
45338;SDS011;31071;51.478;5.710;2023-03-01T18:02:55;15.18;;;9.38;;
45338;SDS011;31071;51.478;5.710;2023-03-01T18:05:21;16.10;;;10.18;;
45338;SDS011;31071;51.478;5.710;2023-03-01T18:07:49;17.23;;;11.13;;
45338;SDS011;31071;51.478;5.710;2023-03-01T18:10:15;15.00;;;9.95;;
45338;SDS011;31071;51.478;5.710;2023-03-01T18:12:42;17.48;;;10.27;;
45338;SDS011;31071;51.478;5.710;2023-03-01T18:15:09;15.05;;;10.20;;